sensor_id;sensor_type;location;lat;lon;timestamp;temperature;humidity
61807;DHT22;47726;52.766;6.606;2023-03-30T00:01:29;11.20;99.90
61807;DHT22;47726;52.766;6.606;2023-03-30T00:03:55;11.30;99.90
61807;DHT22;47726;52.766;6.606;2023-03-30T00:06:20;11.30;99.90
61807;DHT22;47726;52.766;6.606;2023-03-30T00:08:48;11.30;99.90
61807;DHT22;47726;52.766;6.606;2023-03-30T00:11:14;11.30;99.90
61807;DHT22;47726;52.766;6.606;2023-03-30T00:13:42;11.30;99.90
61807;DHT22;47726;52.766;6.606;2023-03-30T00:16:10;11.40;99.90
61807;DHT22;47726;52.766;6.606;2023-03-30T00:18:36;11.40;99.90
61807;DHT22;47726;52.766;6.606;2023-03-30T00:21:04;11.40;99.90
61807;DHT22;47726;52.766;6.606;2023-03-30T00:23:31;11.40;99.90
61807;DHT22;47726;52.766;6.606;2023-03-30T00:25:57;11.40;99.90
61807;DHT22;47726;52.766;6.606;2023-03-30T00:28:23;11.40;99.90
61807;DHT22;47726;52.766;6.606;2023-03-30T00:30:50;11.50;99.90
61807;DHT22;47726;52.766;6.606;2023-03-30T00:33:18;11.40;99.90
61807;DHT22;47726;52.766;6.606;2023-03-30T00:35:53;11.50;99.90
61807;DHT22;47726;52.766;6.606;2023-03-30T00:38:20;11.40;99.90
61807;DHT22;47726;52.766;6.606;2023-03-30T00:40:54;11.50;99.90
61807;DHT22;47726;52.766;6.606;2023-03-30T00:43:20;11.40;99.90
61807;DHT22;47726;52.766;6.606;2023-03-30T00:45:46;11.40;99.90
61807;DHT22;47726;52.766;6.606;2023-03-30T00:48:19;11.40;99.90
61807;DHT22;47726;52.766;6.606;2023-03-30T00:53:27;11.40;99.90
61807;DHT22;47726;52.766;6.606;2023-03-30T00:55:55;11.40;99.90
61807;DHT22;47726;52.766;6.606;2023-03-30T00:58:22;11.40;99.90
61807;DHT22;47726;52.766;6.606;2023-03-30T01:00:48;11.40;99.90
61807;DHT22;47726;52.766;6.606;2023-03-30T01:03:44;11.30;99.90
61807;DHT22;47726;52.766;6.606;2023-03-30T01:06:13;11.30;99.90
61807;DHT22;47726;52.766;6.606;2023-03-30T01:08:39;11.40;99.90
61807;DHT22;47726;52.766;6.606;2023-03-30T01:11:07;11.40;99.90
61807;DHT22;47726;52.766;6.606;2023-03-30T01:13:40;11.30;99.90
61807;DHT22;47726;52.766;6.606;2023-03-30T01:16:18;11.40;99.90
61807;DHT22;47726;52.766;6.606;2023-03-30T01:30:12;11.30;99.90
61807;DHT22;47726;52.766;6.606;2023-03-30T01:39:03;11.30;99.90
61807;DHT22;47726;52.766;6.606;2023-03-30T01:41:46;11.40;99.90
61807;DHT22;47726;52.766;6.606;2023-03-30T01:44:39;11.40;99.90
61807;DHT22;47726;52.766;6.606;2023-03-30T01:50:12;11.30;99.90
61807;DHT22;47726;52.766;6.606;2023-03-30T01:52:59;11.40;99.90
61807;DHT22;47726;52.766;6.606;2023-03-30T01:55:43;11.40;99.90
61807;DHT22;47726;52.766;6.606;2023-03-30T01:58:15;11.30;99.90
61807;DHT22;47726;52.766;6.606;2023-03-30T02:00:43;11.30;99.90
61807;DHT22;47726;52.766;6.606;2023-03-30T02:03:16;11.30;99.90
61807;DHT22;47726;52.766;6.606;2023-03-30T02:05:45;11.30;99.90
61807;DHT22;47726;52.766;6.606;2023-03-30T02:08:17;11.30;99.90
61807;DHT22;47726;52.766;6.606;2023-03-30T02:10:45;11.40;99.90
61807;DHT22;47726;52.766;6.606;2023-03-30T02:13:12;11.30;99.90
61807;DHT22;47726;52.766;6.606;2023-03-30T02:15:46;11.30;99.90
61807;DHT22;47726;52.766;6.606;2023-03-30T02:18:12;11.30;99.90
61807;DHT22;47726;52.766;6.606;2023-03-30T02:20:38;11.30;99.90
61807;DHT22;47726;52.766;6.606;2023-03-30T02:23:04;11.30;99.90
61807;DHT22;47726;52.766;6.606;2023-03-30T02:25:32;11.30;99.90
61807;DHT22;47726;52.766;6.606;2023-03-30T02:27:58;11.30;99.90
61807;DHT22;47726;52.766;6.606;2023-03-30T02:30:24;11.30;99.90
61807;DHT22;47726;52.766;6.606;2023-03-30T02:32:54;11.30;99.90
61807;DHT22;47726;52.766;6.606;2023-03-30T02:40:57;11.50;99.90
61807;DHT22;47726;52.766;6.606;2023-03-30T02:43:59;11.50;99.90
61807;DHT22;47726;52.766;6.606;2023-03-30T02:47:03;11.60;99.90
61807;DHT22;47726;52.766;6.606;2023-03-30T02:58:35;11.80;99.90
61807;DHT22;47726;52.766;6.606;2023-03-30T03:01:15;11.80;99.90
61807;DHT22;47726;52.766;6.606;2023-03-30T03:03:47;11.80;99.90
61807;DHT22;47726;52.766;6.606;2023-03-30T03:06:14;11.90;99.90
61807;DHT22;47726;52.766;6.606;2023-03-30T03:08:42;11.80;99.90
61807;DHT22;47726;52.766;6.606;2023-03-30T03:11:09;11.90;99.90
61807;DHT22;47726;52.766;6.606;2023-03-30T03:13:36;11.90;99.90
61807;DHT22;47726;52.766;6.606;2023-03-30T03:16:06;11.90;99.90
61807;DHT22;47726;52.766;6.606;2023-03-30T03:18:35;11.90;99.90
61807;DHT22;47726;52.766;6.606;2023-03-30T03:21:04;11.90;99.90
61807;DHT22;47726;52.766;6.606;2023-03-30T03:23:30;12.00;99.90
61807;DHT22;47726;52.766;6.606;2023-03-30T03:25:55;12.00;99.90
61807;DHT22;47726;52.766;6.606;2023-03-30T03:28:21;12.00;99.90
61807;DHT22;47726;52.766;6.606;2023-03-30T03:30:50;12.00;99.90
61807;DHT22;47726;52.766;6.606;2023-03-30T03:33:16;12.00;99.90
61807;DHT22;47726;52.766;6.606;2023-03-30T03:35:44;12.00;99.90
61807;DHT22;47726;52.766;6.606;2023-03-30T03:38:11;12.00;99.90
61807;DHT22;47726;52.766;6.606;2023-03-30T03:40:36;12.10;99.90
61807;DHT22;47726;52.766;6.606;2023-03-30T03:43:02;12.10;99.90
61807;DHT22;47726;52.766;6.606;2023-03-30T03:45:27;12.10;99.90
61807;DHT22;47726;52.766;6.606;2023-03-30T03:47:53;12.20;99.90
61807;DHT22;47726;52.766;6.606;2023-03-30T03:50:19;12.30;99.90
61807;DHT22;47726;52.766;6.606;2023-03-30T03:52:45;12.30;99.90
61807;DHT22;47726;52.766;6.606;2023-03-30T03:55:11;12.40;99.90
61807;DHT22;47726;52.766;6.606;2023-03-30T03:57:37;12.40;99.90
61807;DHT22;47726;52.766;6.606;2023-03-30T04:00:04;12.50;99.90
61807;DHT22;47726;52.766;6.606;2023-03-30T04:02:42;12.50;99.90
61807;DHT22;47726;52.766;6.606;2023-03-30T04:05:08;12.50;99.90
61807;DHT22;47726;52.766;6.606;2023-03-30T04:07:34;12.50;99.90
61807;DHT22;47726;52.766;6.606;2023-03-30T04:10:04;12.50;99.90
61807;DHT22;47726;52.766;6.606;2023-03-30T04:12:31;12.50;99.90
61807;DHT22;47726;52.766;6.606;2023-03-30T04:14:57;12.50;99.90
61807;DHT22;47726;52.766;6.606;2023-03-30T04:17:23;12.50;99.90
61807;DHT22;47726;52.766;6.606;2023-03-30T04:19:49;12.50;99.90
61807;DHT22;47726;52.766;6.606;2023-03-30T04:22:21;12.40;99.90
61807;DHT22;47726;52.766;6.606;2023-03-30T04:24:53;12.40;99.90
61807;DHT22;47726;52.766;6.606;2023-03-30T04:27:19;12.40;99.90
61807;DHT22;47726;52.766;6.606;2023-03-30T04:29:45;12.40;99.90
61807;DHT22;47726;52.766;6.606;2023-03-30T04:32:11;12.30;99.90
61807;DHT22;47726;52.766;6.606;2023-03-30T04:34:40;12.30;99.90
61807;DHT22;47726;52.766;6.606;2023-03-30T04:37:08;12.30;99.90
61807;DHT22;47726;52.766;6.606;2023-03-30T04:39:34;12.20;99.90
61807;DHT22;47726;52.766;6.606;2023-03-30T04:41:59;12.20;99.90
61807;DHT22;47726;52.766;6.606;2023-03-30T04:44:28;12.20;99.90
61807;DHT22;47726;52.766;6.606;2023-03-30T04:46:55;12.20;99.90
61807;DHT22;47726;52.766;6.606;2023-03-30T04:49:21;12.20;99.90
61807;DHT22;47726;52.766;6.606;2023-03-30T04:51:47;12.20;99.90
61807;DHT22;47726;52.766;6.606;2023-03-30T04:54:12;12.10;99.90
61807;DHT22;47726;52.766;6.606;2023-03-30T04:56:38;12.10;99.90
61807;DHT22;47726;52.766;6.606;2023-03-30T04:59:04;12.10;99.90
61807;DHT22;47726;52.766;6.606;2023-03-30T05:01:30;12.10;99.90
61807;DHT22;47726;52.766;6.606;2023-03-30T05:03:55;12.10;99.90
61807;DHT22;47726;52.766;6.606;2023-03-30T05:06:21;12.10;99.90
61807;DHT22;47726;52.766;6.606;2023-03-30T05:08:47;12.10;99.90
61807;DHT22;47726;52.766;6.606;2023-03-30T05:11:13;12.10;99.90
61807;DHT22;47726;52.766;6.606;2023-03-30T05:13:38;12.10;99.90
61807;DHT22;47726;52.766;6.606;2023-03-30T05:16:05;12.10;99.90
61807;DHT22;47726;52.766;6.606;2023-03-30T05:18:31;12.10;99.90
61807;DHT22;47726;52.766;6.606;2023-03-30T05:20:57;12.10;99.90
61807;DHT22;47726;52.766;6.606;2023-03-30T05:23:23;12.10;99.90
61807;DHT22;47726;52.766;6.606;2023-03-30T05:25:49;12.10;99.90
61807;DHT22;47726;52.766;6.606;2023-03-30T05:28:15;12.10;99.90
61807;DHT22;47726;52.766;6.606;2023-03-30T05:30:44;12.10;99.90
61807;DHT22;47726;52.766;6.606;2023-03-30T05:33:11;12.10;99.90
61807;DHT22;47726;52.766;6.606;2023-03-30T05:35:37;12.10;99.90
61807;DHT22;47726;52.766;6.606;2023-03-30T05:38:03;12.10;99.90
61807;DHT22;47726;52.766;6.606;2023-03-30T05:40:29;12.20;99.90
61807;DHT22;47726;52.766;6.606;2023-03-30T05:42:55;12.20;99.90
61807;DHT22;47726;52.766;6.606;2023-03-30T05:45:20;12.20;99.90
61807;DHT22;47726;52.766;6.606;2023-03-30T05:47:46;12.30;99.90
61807;DHT22;47726;52.766;6.606;2023-03-30T05:50:12;12.30;99.90
61807;DHT22;47726;52.766;6.606;2023-03-30T05:52:37;12.30;99.90
61807;DHT22;47726;52.766;6.606;2023-03-30T05:55:03;12.30;99.90
61807;DHT22;47726;52.766;6.606;2023-03-30T05:57:29;12.30;99.90
61807;DHT22;47726;52.766;6.606;2023-03-30T05:59:54;12.30;99.90
61807;DHT22;47726;52.766;6.606;2023-03-30T06:02:20;12.30;99.90
61807;DHT22;47726;52.766;6.606;2023-03-30T06:04:45;12.30;99.90
61807;DHT22;47726;52.766;6.606;2023-03-30T06:07:11;12.40;99.90
61807;DHT22;47726;52.766;6.606;2023-03-30T06:09:37;12.40;99.90
61807;DHT22;47726;52.766;6.606;2023-03-30T06:12:03;12.40;99.90
61807;DHT22;47726;52.766;6.606;2023-03-30T06:14:28;12.40;99.90
61807;DHT22;47726;52.766;6.606;2023-03-30T06:16:54;12.40;99.90
61807;DHT22;47726;52.766;6.606;2023-03-30T06:19:21;12.40;99.90
61807;DHT22;47726;52.766;6.606;2023-03-30T06:21:46;12.50;99.90
61807;DHT22;47726;52.766;6.606;2023-03-30T06:24:13;12.50;99.90
61807;DHT22;47726;52.766;6.606;2023-03-30T06:26:39;12.50;99.90
61807;DHT22;47726;52.766;6.606;2023-03-30T06:29:05;12.50;99.90
61807;DHT22;47726;52.766;6.606;2023-03-30T06:31:31;12.60;99.90
61807;DHT22;47726;52.766;6.606;2023-03-30T06:33:56;12.60;99.90
61807;DHT22;47726;52.766;6.606;2023-03-30T06:36:22;12.60;99.90
61807;DHT22;47726;52.766;6.606;2023-03-30T06:38:47;12.60;99.90
61807;DHT22;47726;52.766;6.606;2023-03-30T06:41:14;12.60;99.90
61807;DHT22;47726;52.766;6.606;2023-03-30T06:43:40;12.60;99.90
61807;DHT22;47726;52.766;6.606;2023-03-30T06:46:06;12.60;99.90
61807;DHT22;47726;52.766;6.606;2023-03-30T06:48:32;12.70;99.90
61807;DHT22;47726;52.766;6.606;2023-03-30T06:50:58;12.70;99.90
61807;DHT22;47726;52.766;6.606;2023-03-30T06:53:24;12.70;99.90
61807;DHT22;47726;52.766;6.606;2023-03-30T06:55:52;12.70;99.90
61807;DHT22;47726;52.766;6.606;2023-03-30T06:58:17;12.70;99.90
61807;DHT22;47726;52.766;6.606;2023-03-30T07:00:43;12.70;99.90
61807;DHT22;47726;52.766;6.606;2023-03-30T07:03:09;12.70;99.90
61807;DHT22;47726;52.766;6.606;2023-03-30T07:05:34;12.70;99.90
61807;DHT22;47726;52.766;6.606;2023-03-30T07:08:00;12.70;99.90
61807;DHT22;47726;52.766;6.606;2023-03-30T07:10:26;12.70;99.90
61807;DHT22;47726;52.766;6.606;2023-03-30T07:12:51;12.80;99.90
61807;DHT22;47726;52.766;6.606;2023-03-30T07:15:17;12.80;99.90
61807;DHT22;47726;52.766;6.606;2023-03-30T07:17:43;12.80;99.90
61807;DHT22;47726;52.766;6.606;2023-03-30T07:20:10;12.80;99.90
61807;DHT22;47726;52.766;6.606;2023-03-30T07:22:39;12.80;99.90
61807;DHT22;47726;52.766;6.606;2023-03-30T07:25:05;12.80;99.90
61807;DHT22;47726;52.766;6.606;2023-03-30T07:27:31;12.80;99.90
61807;DHT22;47726;52.766;6.606;2023-03-30T07:29:56;12.80;99.90
61807;DHT22;47726;52.766;6.606;2023-03-30T07:32:22;12.80;99.90
61807;DHT22;47726;52.766;6.606;2023-03-30T07:34:47;12.80;99.90
61807;DHT22;47726;52.766;6.606;2023-03-30T07:37:13;12.80;99.90
61807;DHT22;47726;52.766;6.606;2023-03-30T07:39:39;12.80;99.90
61807;DHT22;47726;52.766;6.606;2023-03-30T07:42:05;12.80;99.90
61807;DHT22;47726;52.766;6.606;2023-03-30T07:44:31;12.80;99.90
61807;DHT22;47726;52.766;6.606;2023-03-30T07:46:57;12.80;99.90
61807;DHT22;47726;52.766;6.606;2023-03-30T07:49:23;12.80;99.90
61807;DHT22;47726;52.766;6.606;2023-03-30T07:51:49;12.70;99.90
61807;DHT22;47726;52.766;6.606;2023-03-30T07:54:15;12.70;99.90
61807;DHT22;47726;52.766;6.606;2023-03-30T07:56:40;12.70;99.90
61807;DHT22;47726;52.766;6.606;2023-03-30T07:59:07;12.70;99.90
61807;DHT22;47726;52.766;6.606;2023-03-30T08:01:34;12.70;99.90
61807;DHT22;47726;52.766;6.606;2023-03-30T08:04:01;12.70;99.90
61807;DHT22;47726;52.766;6.606;2023-03-30T08:06:27;12.70;99.90
61807;DHT22;47726;52.766;6.606;2023-03-30T08:08:54;12.70;99.90
61807;DHT22;47726;52.766;6.606;2023-03-30T08:11:20;12.70;99.90
61807;DHT22;47726;52.766;6.606;2023-03-30T08:13:46;12.60;99.90
61807;DHT22;47726;52.766;6.606;2023-03-30T08:16:12;12.60;99.90
61807;DHT22;47726;52.766;6.606;2023-03-30T08:18:38;12.60;99.90
61807;DHT22;47726;52.766;6.606;2023-03-30T08:21:05;12.60;99.90
61807;DHT22;47726;52.766;6.606;2023-03-30T08:23:31;12.60;99.90
61807;DHT22;47726;52.766;6.606;2023-03-30T08:25:58;12.60;99.90
61807;DHT22;47726;52.766;6.606;2023-03-30T08:28:24;12.60;99.90
61807;DHT22;47726;52.766;6.606;2023-03-30T08:30:50;12.60;99.90
61807;DHT22;47726;52.766;6.606;2023-03-30T08:33:16;12.60;99.90
61807;DHT22;47726;52.766;6.606;2023-03-30T08:35:47;12.60;99.90
61807;DHT22;47726;52.766;6.606;2023-03-30T08:38:13;12.50;99.90
61807;DHT22;47726;52.766;6.606;2023-03-30T08:40:45;12.50;99.90
61807;DHT22;47726;52.766;6.606;2023-03-30T08:45:53;12.30;99.90
61807;DHT22;47726;52.766;6.606;2023-03-30T08:48:21;12.30;99.90
61807;DHT22;47726;52.766;6.606;2023-03-30T08:51:02;12.20;99.90
61807;DHT22;47726;52.766;6.606;2023-03-30T08:53:32;12.10;99.90
61807;DHT22;47726;52.766;6.606;2023-03-30T08:56:09;12.10;99.90
61807;DHT22;47726;52.766;6.606;2023-03-30T08:59:07;12.10;99.90
61807;DHT22;47726;52.766;6.606;2023-03-30T09:01:47;12.20;99.90
61807;DHT22;47726;52.766;6.606;2023-03-30T09:07:13;12.50;99.90
61807;DHT22;47726;52.766;6.606;2023-03-30T09:09:43;12.60;99.90
61807;DHT22;47726;52.766;6.606;2023-03-30T09:12:37;12.60;99.90
61807;DHT22;47726;52.766;6.606;2023-03-30T09:15:26;12.90;99.90
61807;DHT22;47726;52.766;6.606;2023-03-30T09:18:06;13.20;99.90
61807;DHT22;47726;52.766;6.606;2023-03-30T09:20:35;13.40;99.90
61807;DHT22;47726;52.766;6.606;2023-03-30T09:23:03;13.50;99.90
61807;DHT22;47726;52.766;6.606;2023-03-30T09:35:40;13.30;99.90
61807;DHT22;47726;52.766;6.606;2023-03-30T09:38:11;13.20;99.90
61807;DHT22;47726;52.766;6.606;2023-03-30T09:41:10;13.20;99.90
61807;DHT22;47726;52.766;6.606;2023-03-30T09:43:43;13.10;99.90
61807;DHT22;47726;52.766;6.606;2023-03-30T09:46:12;13.10;99.90
61807;DHT22;47726;52.766;6.606;2023-03-30T09:48:46;13.00;99.90
61807;DHT22;47726;52.766;6.606;2023-03-30T09:53:44;13.00;99.90
61807;DHT22;47726;52.766;6.606;2023-03-30T09:59:38;13.00;99.90
61807;DHT22;47726;52.766;6.606;2023-03-30T10:07:26;13.20;99.90
61807;DHT22;47726;52.766;6.606;2023-03-30T10:09:53;13.20;99.90
61807;DHT22;47726;52.766;6.606;2023-03-30T10:12:19;13.20;99.90
61807;DHT22;47726;52.766;6.606;2023-03-30T10:14:53;13.30;99.90
61807;DHT22;47726;52.766;6.606;2023-03-30T10:17:21;13.20;99.90
61807;DHT22;47726;52.766;6.606;2023-03-30T10:19:51;13.20;99.90
61807;DHT22;47726;52.766;6.606;2023-03-30T10:22:18;13.20;99.90
61807;DHT22;47726;52.766;6.606;2023-03-30T10:24:54;13.20;99.90
61807;DHT22;47726;52.766;6.606;2023-03-30T10:27:27;13.30;99.90
61807;DHT22;47726;52.766;6.606;2023-03-30T10:30:10;13.30;99.90
61807;DHT22;47726;52.766;6.606;2023-03-30T10:32:44;13.40;99.90
61807;DHT22;47726;52.766;6.606;2023-03-30T10:35:16;13.50;99.90
61807;DHT22;47726;52.766;6.606;2023-03-30T10:37:44;13.60;99.90
61807;DHT22;47726;52.766;6.606;2023-03-30T10:40:25;13.70;99.90
61807;DHT22;47726;52.766;6.606;2023-03-30T10:42:54;13.90;99.90
61807;DHT22;47726;52.766;6.606;2023-03-30T10:45:40;14.10;99.90
61807;DHT22;47726;52.766;6.606;2023-03-30T10:51:20;14.50;99.90
61807;DHT22;47726;52.766;6.606;2023-03-30T10:56:41;14.80;99.90
61807;DHT22;47726;52.766;6.606;2023-03-30T10:59:42;14.80;99.90
61807;DHT22;47726;52.766;6.606;2023-03-30T11:05:13;14.80;99.90
61807;DHT22;47726;52.766;6.606;2023-03-30T11:10:28;14.80;99.90
61807;DHT22;47726;52.766;6.606;2023-03-30T11:13:11;14.80;99.90
61807;DHT22;47726;52.766;6.606;2023-03-30T11:18:52;14.90;99.90
61807;DHT22;47726;52.766;6.606;2023-03-30T11:24:14;14.90;99.90
61807;DHT22;47726;52.766;6.606;2023-03-30T11:27:32;14.90;99.90
61807;DHT22;47726;52.766;6.606;2023-03-30T11:29:50;15.00;99.90
61807;DHT22;47726;52.766;6.606;2023-03-30T11:32:41;15.00;99.90
61807;DHT22;47726;52.766;6.606;2023-03-30T11:35:16;15.00;99.90
61807;DHT22;47726;52.766;6.606;2023-03-30T11:38:00;15.00;99.90
61807;DHT22;47726;52.766;6.606;2023-03-30T11:40:49;15.00;99.90
61807;DHT22;47726;52.766;6.606;2023-03-30T11:43:18;14.90;99.90
61807;DHT22;47726;52.766;6.606;2023-03-30T11:52:07;14.90;99.90
61807;DHT22;47726;52.766;6.606;2023-03-30T11:57:57;15.20;99.90
61807;DHT22;47726;52.766;6.606;2023-03-30T12:03:04;15.30;99.90
61807;DHT22;47726;52.766;6.606;2023-03-30T12:08:15;15.40;99.90
61807;DHT22;47726;52.766;6.606;2023-03-30T12:10:49;15.40;99.90
61807;DHT22;47726;52.766;6.606;2023-03-30T12:13:17;15.40;99.90
61807;DHT22;47726;52.766;6.606;2023-03-30T12:15:57;15.50;99.90
61807;DHT22;47726;52.766;6.606;2023-03-30T12:18:54;15.60;99.90
61807;DHT22;47726;52.766;6.606;2023-03-30T12:21:37;15.80;99.90
61807;DHT22;47726;52.766;6.606;2023-03-30T12:24:16;16.00;99.90
61807;DHT22;47726;52.766;6.606;2023-03-30T12:26:48;16.10;99.90
61807;DHT22;47726;52.766;6.606;2023-03-30T12:29:18;16.10;99.90
61807;DHT22;47726;52.766;6.606;2023-03-30T12:34:21;16.20;99.90
61807;DHT22;47726;52.766;6.606;2023-03-30T12:36:59;16.30;99.90
61807;DHT22;47726;52.766;6.606;2023-03-30T12:39:38;16.30;99.90
61807;DHT22;47726;52.766;6.606;2023-03-30T12:45:19;16.10;99.90
61807;DHT22;47726;52.766;6.606;2023-03-30T12:50:50;15.90;99.90
61807;DHT22;47726;52.766;6.606;2023-03-30T12:56:24;15.80;99.90
61807;DHT22;47726;52.766;6.606;2023-03-30T13:04:35;16.00;99.90
61807;DHT22;47726;52.766;6.606;2023-03-30T13:07:05;16.00;99.90
61807;DHT22;47726;52.766;6.606;2023-03-30T13:09:34;16.00;99.90
61807;DHT22;47726;52.766;6.606;2023-03-30T13:29:59;16.40;99.90
61807;DHT22;47726;52.766;6.606;2023-03-30T13:32:40;16.30;99.90
61807;DHT22;47726;52.766;6.606;2023-03-30T13:38:16;16.40;99.90
61807;DHT22;47726;52.766;6.606;2023-03-30T13:46:25;16.50;99.90
61807;DHT22;47726;52.766;6.606;2023-03-30T13:49:29;16.50;99.90
61807;DHT22;47726;52.766;6.606;2023-03-30T13:52:08;16.50;99.90
61807;DHT22;47726;52.766;6.606;2023-03-30T13:54:37;16.40;99.90
61807;DHT22;47726;52.766;6.606;2023-03-30T13:57:10;16.40;99.90
61807;DHT22;47726;52.766;6.606;2023-03-30T13:59:40;16.40;99.90
61807;DHT22;47726;52.766;6.606;2023-03-30T14:02:14;16.40;99.90
61807;DHT22;47726;52.766;6.606;2023-03-30T14:04:41;16.40;99.90
61807;DHT22;47726;52.766;6.606;2023-03-30T14:07:15;16.30;99.90
61807;DHT22;47726;52.766;6.606;2023-03-30T14:09:41;16.20;99.90
61807;DHT22;47726;52.766;6.606;2023-03-30T14:12:07;16.10;99.90
61807;DHT22;47726;52.766;6.606;2023-03-30T14:14:40;16.00;99.90
61807;DHT22;47726;52.766;6.606;2023-03-30T14:17:18;15.90;99.90
61807;DHT22;47726;52.766;6.606;2023-03-30T14:22:46;15.90;99.90
61807;DHT22;47726;52.766;6.606;2023-03-30T14:27:50;15.80;99.90
61807;DHT22;47726;52.766;6.606;2023-03-30T14:30:25;15.70;99.90
61807;DHT22;47726;52.766;6.606;2023-03-30T14:33:11;15.70;99.90
61807;DHT22;47726;52.766;6.606;2023-03-30T14:35:54;15.70;99.90
61807;DHT22;47726;52.766;6.606;2023-03-30T14:38:32;15.70;99.90
61807;DHT22;47726;52.766;6.606;2023-03-30T14:43:39;15.60;99.90
61807;DHT22;47726;52.766;6.606;2023-03-30T14:46:08;15.50;99.90
61807;DHT22;47726;52.766;6.606;2023-03-30T14:48:38;15.50;99.90
61807;DHT22;47726;52.766;6.606;2023-03-30T14:51:19;15.50;99.90
61807;DHT22;47726;52.766;6.606;2023-03-30T14:53:45;15.40;99.90
61807;DHT22;47726;52.766;6.606;2023-03-30T14:56:12;15.30;99.90
61807;DHT22;47726;52.766;6.606;2023-03-30T14:58:37;15.20;99.90
61807;DHT22;47726;52.766;6.606;2023-03-30T15:01:06;15.20;99.90
61807;DHT22;47726;52.766;6.606;2023-03-30T15:03:35;15.20;99.90
61807;DHT22;47726;52.766;6.606;2023-03-30T15:06:05;15.20;99.90
61807;DHT22;47726;52.766;6.606;2023-03-30T15:08:37;15.30;99.90
61807;DHT22;47726;52.766;6.606;2023-03-30T15:11:13;15.30;99.90
61807;DHT22;47726;52.766;6.606;2023-03-30T15:13:49;15.30;99.90
61807;DHT22;47726;52.766;6.606;2023-03-30T15:16:26;15.20;99.90
61807;DHT22;47726;52.766;6.606;2023-03-30T15:19:04;15.20;99.90
61807;DHT22;47726;52.766;6.606;2023-03-30T15:21:34;15.20;99.90
61807;DHT22;47726;52.766;6.606;2023-03-30T15:24:00;15.20;99.90
61807;DHT22;47726;52.766;6.606;2023-03-30T15:26:29;15.20;99.90
61807;DHT22;47726;52.766;6.606;2023-03-30T15:28:56;15.10;99.90
61807;DHT22;47726;52.766;6.606;2023-03-30T15:31:24;15.10;99.90
61807;DHT22;47726;52.766;6.606;2023-03-30T15:33:57;15.10;99.90
61807;DHT22;47726;52.766;6.606;2023-03-30T15:36:36;15.00;99.90
61807;DHT22;47726;52.766;6.606;2023-03-30T15:39:18;15.00;99.90
61807;DHT22;47726;52.766;6.606;2023-03-30T15:41:56;15.00;99.90
61807;DHT22;47726;52.766;6.606;2023-03-30T15:44:23;15.00;99.90
61807;DHT22;47726;52.766;6.606;2023-03-30T15:46:49;15.00;99.90
61807;DHT22;47726;52.766;6.606;2023-03-30T15:49:21;14.90;99.90
61807;DHT22;47726;52.766;6.606;2023-03-30T15:51:55;14.90;99.90
61807;DHT22;47726;52.766;6.606;2023-03-30T15:54:22;14.90;99.90
61807;DHT22;47726;52.766;6.606;2023-03-30T15:59:36;14.80;99.90
61807;DHT22;47726;52.766;6.606;2023-03-30T16:04:41;14.70;99.90
61807;DHT22;47726;52.766;6.606;2023-03-30T16:07:18;14.70;99.90
61807;DHT22;47726;52.766;6.606;2023-03-30T16:09:44;14.70;99.90
61807;DHT22;47726;52.766;6.606;2023-03-30T16:12:19;14.60;99.90
61807;DHT22;47726;52.766;6.606;2023-03-30T16:14:49;14.60;99.90
61807;DHT22;47726;52.766;6.606;2023-03-30T16:17:15;14.60;99.90
61807;DHT22;47726;52.766;6.606;2023-03-30T16:19:41;14.60;99.90
61807;DHT22;47726;52.766;6.606;2023-03-30T16:22:08;14.60;99.90
61807;DHT22;47726;52.766;6.606;2023-03-30T16:24:35;14.50;99.90
61807;DHT22;47726;52.766;6.606;2023-03-30T16:27:01;14.50;99.90
61807;DHT22;47726;52.766;6.606;2023-03-30T16:29:27;14.50;99.90
61807;DHT22;47726;52.766;6.606;2023-03-30T16:31:53;14.50;99.90
61807;DHT22;47726;52.766;6.606;2023-03-30T16:34:19;14.50;99.90
61807;DHT22;47726;52.766;6.606;2023-03-30T16:36:47;14.50;99.90
61807;DHT22;47726;52.766;6.606;2023-03-30T16:39:22;14.40;99.90
61807;DHT22;47726;52.766;6.606;2023-03-30T16:41:49;14.40;99.90
61807;DHT22;47726;52.766;6.606;2023-03-30T16:44:17;14.40;99.90
61807;DHT22;47726;52.766;6.606;2023-03-30T16:46:43;14.40;99.90
61807;DHT22;47726;52.766;6.606;2023-03-30T16:49:14;14.40;99.90
61807;DHT22;47726;52.766;6.606;2023-03-30T16:51:41;14.40;99.90
61807;DHT22;47726;52.766;6.606;2023-03-30T16:54:06;14.30;99.90
61807;DHT22;47726;52.766;6.606;2023-03-30T16:56:32;14.30;99.90
61807;DHT22;47726;52.766;6.606;2023-03-30T16:58:58;14.30;99.90
61807;DHT22;47726;52.766;6.606;2023-03-30T17:01:27;14.20;99.90
61807;DHT22;47726;52.766;6.606;2023-03-30T17:03:54;14.20;99.90
61807;DHT22;47726;52.766;6.606;2023-03-30T17:06:20;14.20;99.90
61807;DHT22;47726;52.766;6.606;2023-03-30T17:08:47;14.20;99.90
61807;DHT22;47726;52.766;6.606;2023-03-30T17:11:14;14.20;99.90
61807;DHT22;47726;52.766;6.606;2023-03-30T17:13:40;14.20;99.90
61807;DHT22;47726;52.766;6.606;2023-03-30T17:16:07;14.20;99.90
61807;DHT22;47726;52.766;6.606;2023-03-30T17:18:33;14.10;99.90
61807;DHT22;47726;52.766;6.606;2023-03-30T17:20:59;14.10;99.90
61807;DHT22;47726;52.766;6.606;2023-03-30T17:23:30;14.10;99.90
61807;DHT22;47726;52.766;6.606;2023-03-30T17:25:58;14.10;99.90
61807;DHT22;47726;52.766;6.606;2023-03-30T17:28:26;14.10;99.90
61807;DHT22;47726;52.766;6.606;2023-03-30T17:30:54;14.00;99.90
61807;DHT22;47726;52.766;6.606;2023-03-30T17:33:21;14.00;99.90
61807;DHT22;47726;52.766;6.606;2023-03-30T17:35:52;14.00;99.90
61807;DHT22;47726;52.766;6.606;2023-03-30T17:38:18;14.00;99.90
61807;DHT22;47726;52.766;6.606;2023-03-30T17:40:44;13.90;99.90
61807;DHT22;47726;52.766;6.606;2023-03-30T17:43:10;13.90;99.90
61807;DHT22;47726;52.766;6.606;2023-03-30T17:45:37;13.90;99.90
61807;DHT22;47726;52.766;6.606;2023-03-30T17:48:05;13.90;99.90
61807;DHT22;47726;52.766;6.606;2023-03-30T17:50:36;13.80;99.90
61807;DHT22;47726;52.766;6.606;2023-03-30T17:53:03;13.80;99.90
61807;DHT22;47726;52.766;6.606;2023-03-30T17:55:31;13.80;99.90
61807;DHT22;47726;52.766;6.606;2023-03-30T17:57:58;13.80;99.90
61807;DHT22;47726;52.766;6.606;2023-03-30T18:00:31;13.80;99.90
61807;DHT22;47726;52.766;6.606;2023-03-30T18:02:59;13.80;99.90
61807;DHT22;47726;52.766;6.606;2023-03-30T18:05:28;13.70;99.90
61807;DHT22;47726;52.766;6.606;2023-03-30T18:07:55;13.70;99.90
61807;DHT22;47726;52.766;6.606;2023-03-30T18:10:34;13.70;99.90
61807;DHT22;47726;52.766;6.606;2023-03-30T18:13:00;13.60;99.90
61807;DHT22;47726;52.766;6.606;2023-03-30T18:15:26;13.60;99.90
61807;DHT22;47726;52.766;6.606;2023-03-30T18:17:56;13.60;99.90
61807;DHT22;47726;52.766;6.606;2023-03-30T18:20:34;13.50;99.90
61807;DHT22;47726;52.766;6.606;2023-03-30T18:23:00;13.50;99.90